Terminal Aerodrome Forecast
Issued by NWS

Home | Current Version | Previous Version | Text Only | Print | Product List | Glossary On
Versions: 1 2 3 4 5 6 7 8 9 10 11 12 13 14 15 16 17 18 19 20 21 22 23 24
000
FTUS41 KBGM 230100 AAA
TAFRME
TAF AMD
KRME 230133Z 2302/2324 12010KT P6SM -SHRA OVC025 WS020/24045KT
     FM230300 VRB05KT P6SM -SHRA OVC025 WS020/24045KT
     FM231000 VRB05KT P6SM OVC030
     FM231500 14005KT P6SM OVC030
      TEMPO 2321/2324 OVC050=

USA.gov is the U.S. government's official web portal to all federal, state and local government web resources and services.